sensor_id;sensor_type;location;lat;lon;timestamp;temperature;humidity
76211;DHT22;65003;49.518;11.280;2022-12-07T00:01:34;4.60;86.50
76211;DHT22;65003;49.518;11.280;2022-12-07T00:04:00;4.60;86.10
76211;DHT22;65003;49.518;11.280;2022-12-07T00:06:27;4.70;86.00
76211;DHT22;65003;49.518;11.280;2022-12-07T00:08:53;4.70;85.60
76211;DHT22;65003;49.518;11.280;2022-12-07T00:11:21;4.70;85.80
76211;DHT22;65003;49.518;11.280;2022-12-07T00:13:47;4.70;85.60
76211;DHT22;65003;49.518;11.280;2022-12-07T00:16:16;4.60;86.10
76211;DHT22;65003;49.518;11.280;2022-12-07T00:18:41;4.60;86.20
76211;DHT22;65003;49.518;11.280;2022-12-07T00:21:11;4.70;86.10
76211;DHT22;65003;49.518;11.280;2022-12-07T00:23:37;4.70;86.10
76211;DHT22;65003;49.518;11.280;2022-12-07T00:26:05;4.70;86.10
76211;DHT22;65003;49.518;11.280;2022-12-07T00:28:31;4.60;86.10
76211;DHT22;65003;49.518;11.280;2022-12-07T00:31:00;4.50;86.60
76211;DHT22;65003;49.518;11.280;2022-12-07T00:33:25;4.40;86.90
76211;DHT22;65003;49.518;11.280;2022-12-07T00:35:56;4.40;87.10
76211;DHT22;65003;49.518;11.280;2022-12-07T00:38:22;4.40;88.10
76211;DHT22;65003;49.518;11.280;2022-12-07T00:40:55;4.40;87.60
76211;DHT22;65003;49.518;11.280;2022-12-07T00:43:21;4.40;87.40
76211;DHT22;65003;49.518;11.280;2022-12-07T00:45:47;4.40;87.50
76211;DHT22;65003;49.518;11.280;2022-12-07T00:48:14;4.40;87.40
76211;DHT22;65003;49.518;11.280;2022-12-07T00:50:40;3.50;87.10
76211;DHT22;65003;49.518;11.280;2022-12-07T00:53:07;4.30;87.70
76211;DHT22;65003;49.518;11.280;2022-12-07T00:55:34;4.30;87.70
76211;DHT22;65003;49.518;11.280;2022-12-07T00:58:00;4.30;87.50
76211;DHT22;65003;49.518;11.280;2022-12-07T01:00:27;4.20;87.90
76211;DHT22;65003;49.518;11.280;2022-12-07T01:02:53;4.20;88.30
76211;DHT22;65003;49.518;11.280;2022-12-07T01:05:20;4.10;88.40
76211;DHT22;65003;49.518;11.280;2022-12-07T01:07:46;4.10;88.30
76211;DHT22;65003;49.518;11.280;2022-12-07T01:10:13;4.10;88.90
76211;DHT22;65003;49.518;11.280;2022-12-07T01:12:40;4.10;88.60
76211;DHT22;65003;49.518;11.280;2022-12-07T01:15:07;4.10;88.30
76211;DHT22;65003;49.518;11.280;2022-12-07T01:17:34;4.00;88.60
76211;DHT22;65003;49.518;11.280;2022-12-07T01:20:01;4.00;88.80
76211;DHT22;65003;49.518;11.280;2022-12-07T01:22:27;4.00;89.30
76211;DHT22;65003;49.518;11.280;2022-12-07T01:24:54;4.00;89.10
76211;DHT22;65003;49.518;11.280;2022-12-07T01:27:20;4.00;88.80
76211;DHT22;65003;49.518;11.280;2022-12-07T01:29:47;4.10;88.50
76211;DHT22;65003;49.518;11.280;2022-12-07T01:32:13;4.20;88.30
76211;DHT22;65003;49.518;11.280;2022-12-07T01:34:40;5.00;88.20
76211;DHT22;65003;49.518;11.280;2022-12-07T01:37:07;4.40;87.20
76211;DHT22;65003;49.518;11.280;2022-12-07T01:39:33;4.40;87.00
76211;DHT22;65003;49.518;11.280;2022-12-07T01:42:00;4.40;87.50
76211;DHT22;65003;49.518;11.280;2022-12-07T01:44:28;4.40;87.10
76211;DHT22;65003;49.518;11.280;2022-12-07T01:46:55;4.50;87.00
76211;DHT22;65003;49.518;11.280;2022-12-07T01:49:28;4.50;86.70
76211;DHT22;65003;49.518;11.280;2022-12-07T01:51:54;4.50;86.60
76211;DHT22;65003;49.518;11.280;2022-12-07T01:54:19;4.50;86.80
76211;DHT22;65003;49.518;11.280;2022-12-07T01:56:48;4.50;86.90
76211;DHT22;65003;49.518;11.280;2022-12-07T01:59:12;4.50;86.70
76211;DHT22;65003;49.518;11.280;2022-12-07T02:01:38;4.50;86.70
76211;DHT22;65003;49.518;11.280;2022-12-07T02:04:05;4.50;86.40
76211;DHT22;65003;49.518;11.280;2022-12-07T02:06:32;4.60;86.30
76211;DHT22;65003;49.518;11.280;2022-12-07T02:08:58;4.70;85.80
76211;DHT22;65003;49.518;11.280;2022-12-07T02:11:25;4.80;85.50
76211;DHT22;65003;49.518;11.280;2022-12-07T02:13:51;4.80;85.30
76211;DHT22;65003;49.518;11.280;2022-12-07T02:21:54;4.60;85.80
76211;DHT22;65003;49.518;11.280;2022-12-07T02:24:27;4.60;86.00
76211;DHT22;65003;49.518;11.280;2022-12-07T02:29:35;4.60;86.30
76211;DHT22;65003;49.518;11.280;2022-12-07T02:32:03;4.60;86.20
76211;DHT22;65003;49.518;11.280;2022-12-07T02:34:32;4.70;86.00
76211;DHT22;65003;49.518;11.280;2022-12-07T02:36:57;4.60;85.60
76211;DHT22;65003;49.518;11.280;2022-12-07T02:39:27;4.60;85.50
76211;DHT22;65003;49.518;11.280;2022-12-07T02:41:53;4.50;86.30
76211;DHT22;65003;49.518;11.280;2022-12-07T02:44:19;4.60;86.90
76211;DHT22;65003;49.518;11.280;2022-12-07T02:46:47;4.70;85.80
76211;DHT22;65003;49.518;11.280;2022-12-07T02:49:11;4.70;85.40
76211;DHT22;65003;49.518;11.280;2022-12-07T02:51:39;4.70;85.50
76211;DHT22;65003;49.518;11.280;2022-12-07T02:54:09;4.60;85.70
76211;DHT22;65003;49.518;11.280;2022-12-07T02:56:43;4.60;85.60
76211;DHT22;65003;49.518;11.280;2022-12-07T03:02:06;4.60;86.30
76211;DHT22;65003;49.518;11.280;2022-12-07T03:04:39;4.60;85.80
76211;DHT22;65003;49.518;11.280;2022-12-07T03:07:05;4.60;85.60
76211;DHT22;65003;49.518;11.280;2022-12-07T03:09:36;4.70;85.30
76211;DHT22;65003;49.518;11.280;2022-12-07T03:12:10;4.70;85.10
76211;DHT22;65003;49.518;11.280;2022-12-07T03:14:38;4.80;84.80
76211;DHT22;65003;49.518;11.280;2022-12-07T03:17:07;4.80;84.70
76211;DHT22;65003;49.518;11.280;2022-12-07T03:19:31;4.90;84.60
76211;DHT22;65003;49.518;11.280;2022-12-07T03:22:01;4.90;84.30
76211;DHT22;65003;49.518;11.280;2022-12-07T03:24:33;4.90;84.00
76211;DHT22;65003;49.518;11.280;2022-12-07T03:27:03;4.90;83.70
76211;DHT22;65003;49.518;11.280;2022-12-07T03:29:24;4.90;84.00
76211;DHT22;65003;49.518;11.280;2022-12-07T03:31:51;4.90;84.40
76211;DHT22;65003;49.518;11.280;2022-12-07T03:34:21;4.90;84.20
76211;DHT22;65003;49.518;11.280;2022-12-07T03:36:52;4.90;84.00
76211;DHT22;65003;49.518;11.280;2022-12-07T03:39:25;4.90;84.00
76211;DHT22;65003;49.518;11.280;2022-12-07T03:41:53;4.90;83.90
76211;DHT22;65003;49.518;11.280;2022-12-07T03:44:20;4.90;84.10
76211;DHT22;65003;49.518;11.280;2022-12-07T03:46:59;4.90;84.70
76211;DHT22;65003;49.518;11.280;2022-12-07T03:49:31;4.90;83.70
76211;DHT22;65003;49.518;11.280;2022-12-07T03:52:23;4.80;83.50
76211;DHT22;65003;49.518;11.280;2022-12-07T03:54:52;4.80;83.60
76211;DHT22;65003;49.518;11.280;2022-12-07T03:57:16;4.60;84.10
76211;DHT22;65003;49.518;11.280;2022-12-07T03:59:42;4.50;84.80
76211;DHT22;65003;49.518;11.280;2022-12-07T04:02:09;4.40;84.90
76211;DHT22;65003;49.518;11.280;2022-12-07T04:04:35;4.40;84.80
76211;DHT22;65003;49.518;11.280;2022-12-07T04:07:02;4.40;84.60
76211;DHT22;65003;49.518;11.280;2022-12-07T04:09:28;4.30;84.30
76211;DHT22;65003;49.518;11.280;2022-12-07T04:11:55;4.30;84.00
76211;DHT22;65003;49.518;11.280;2022-12-07T04:14:22;4.20;83.00
76211;DHT22;65003;49.518;11.280;2022-12-07T04:16:50;4.00;84.30
76211;DHT22;65003;49.518;11.280;2022-12-07T04:19:16;3.80;84.90
76211;DHT22;65003;49.518;11.280;2022-12-07T04:21:42;3.80;85.20
76211;DHT22;65003;49.518;11.280;2022-12-07T04:24:09;3.80;84.80
76211;DHT22;65003;49.518;11.280;2022-12-07T04:26:36;3.70;84.40
76211;DHT22;65003;49.518;11.280;2022-12-07T04:29:02;3.70;84.00
76211;DHT22;65003;49.518;11.280;2022-12-07T04:31:29;3.60;83.80
76211;DHT22;65003;49.518;11.280;2022-12-07T04:33:55;3.40;84.20
76211;DHT22;65003;49.518;11.280;2022-12-07T04:36:22;3.30;85.60
76211;DHT22;65003;49.518;11.280;2022-12-07T04:38:48;3.00;86.80
76211;DHT22;65003;49.518;11.280;2022-12-07T04:41:15;3.00;88.00
76211;DHT22;65003;49.518;11.280;2022-12-07T04:43:42;3.00;87.40
76211;DHT22;65003;49.518;11.280;2022-12-07T04:46:08;3.10;87.20
76211;DHT22;65003;49.518;11.280;2022-12-07T04:48:35;3.10;87.50
76211;DHT22;65003;49.518;11.280;2022-12-07T04:51:02;3.10;87.60
76211;DHT22;65003;49.518;11.280;2022-12-07T04:53:28;3.10;87.40
76211;DHT22;65003;49.518;11.280;2022-12-07T04:55:55;3.20;87.50
76211;DHT22;65003;49.518;11.280;2022-12-07T04:58:21;3.10;87.70
76211;DHT22;65003;49.518;11.280;2022-12-07T05:00:48;3.10;87.80
76211;DHT22;65003;49.518;11.280;2022-12-07T05:03:14;3.10;88.00
76211;DHT22;65003;49.518;11.280;2022-12-07T05:05:41;3.20;88.00
76211;DHT22;65003;49.518;11.280;2022-12-07T05:08:07;3.30;87.30
76211;DHT22;65003;49.518;11.280;2022-12-07T05:10:34;3.30;87.10
76211;DHT22;65003;49.518;11.280;2022-12-07T05:13:01;3.30;87.30
76211;DHT22;65003;49.518;11.280;2022-12-07T05:15:27;3.40;87.30
76211;DHT22;65003;49.518;11.280;2022-12-07T05:17:54;3.40;87.20
76211;DHT22;65003;49.518;11.280;2022-12-07T05:20:20;3.50;86.90
76211;DHT22;65003;49.518;11.280;2022-12-07T05:22:47;3.60;86.40
76211;DHT22;65003;49.518;11.280;2022-12-07T05:25:14;3.70;86.20
76211;DHT22;65003;49.518;11.280;2022-12-07T05:27:40;3.80;85.70
76211;DHT22;65003;49.518;11.280;2022-12-07T05:30:07;3.90;85.20
76211;DHT22;65003;49.518;11.280;2022-12-07T05:32:34;4.00;85.10
76211;DHT22;65003;49.518;11.280;2022-12-07T05:35:00;4.00;85.00
76211;DHT22;65003;49.518;11.280;2022-12-07T05:37:27;4.10;84.80
76211;DHT22;65003;49.518;11.280;2022-12-07T05:39:54;4.00;84.80
76211;DHT22;65003;49.518;11.280;2022-12-07T05:42:20;4.00;85.00
76211;DHT22;65003;49.518;11.280;2022-12-07T05:44:47;3.90;85.40
76211;DHT22;65003;49.518;11.280;2022-12-07T05:47:14;3.90;85.50
76211;DHT22;65003;49.518;11.280;2022-12-07T05:49:40;3.90;85.40
76211;DHT22;65003;49.518;11.280;2022-12-07T05:52:07;4.00;85.20
76211;DHT22;65003;49.518;11.280;2022-12-07T05:54:33;4.00;84.90
76211;DHT22;65003;49.518;11.280;2022-12-07T05:57:00;4.10;85.40
76211;DHT22;65003;49.518;11.280;2022-12-07T05:59:26;4.30;85.20
76211;DHT22;65003;49.518;11.280;2022-12-07T06:02:00;4.30;84.40
76211;DHT22;65003;49.518;11.280;2022-12-07T06:04:28;4.40;84.20
76211;DHT22;65003;49.518;11.280;2022-12-07T06:06:54;4.40;84.10
76211;DHT22;65003;49.518;11.280;2022-12-07T06:09:21;4.50;84.10
76211;DHT22;65003;49.518;11.280;2022-12-07T06:11:47;4.60;83.00
76211;DHT22;65003;49.518;11.280;2022-12-07T06:14:19;4.60;82.70
76211;DHT22;65003;49.518;11.280;2022-12-07T06:16:46;4.60;82.50
76211;DHT22;65003;49.518;11.280;2022-12-07T06:19:12;4.50;82.90
76211;DHT22;65003;49.518;11.280;2022-12-07T06:21:39;4.50;83.30
76211;DHT22;65003;49.518;11.280;2022-12-07T06:24:05;4.50;82.80
76211;DHT22;65003;49.518;11.280;2022-12-07T06:26:32;4.50;83.00
76211;DHT22;65003;49.518;11.280;2022-12-07T06:28:59;4.40;83.30
76211;DHT22;65003;49.518;11.280;2022-12-07T06:31:25;4.40;83.40
76211;DHT22;65003;49.518;11.280;2022-12-07T06:33:56;4.30;83.50
76211;DHT22;65003;49.518;11.280;2022-12-07T06:36:18;5.00;84.20
76211;DHT22;65003;49.518;11.280;2022-12-07T06:38:45;4.30;84.00
76211;DHT22;65003;49.518;11.280;2022-12-07T06:41:12;4.30;83.90
76211;DHT22;65003;49.518;11.280;2022-12-07T06:43:38;4.30;83.90
76211;DHT22;65003;49.518;11.280;2022-12-07T06:46:05;4.30;83.90
76211;DHT22;65003;49.518;11.280;2022-12-07T06:48:31;4.30;84.00
76211;DHT22;65003;49.518;11.280;2022-12-07T06:50:58;4.30;84.10
76211;DHT22;65003;49.518;11.280;2022-12-07T06:53:25;4.40;84.00
76211;DHT22;65003;49.518;11.280;2022-12-07T06:55:51;4.30;83.60
76211;DHT22;65003;49.518;11.280;2022-12-07T06:58:18;4.30;83.80
76211;DHT22;65003;49.518;11.280;2022-12-07T07:00:44;4.30;83.80
76211;DHT22;65003;49.518;11.280;2022-12-07T07:03:11;4.30;84.10
76211;DHT22;65003;49.518;11.280;2022-12-07T07:05:37;4.30;83.80
76211;DHT22;65003;49.518;11.280;2022-12-07T07:08:04;4.30;83.90
76211;DHT22;65003;49.518;11.280;2022-12-07T07:10:31;4.30;84.00
76211;DHT22;65003;49.518;11.280;2022-12-07T07:12:57;4.30;83.80
76211;DHT22;65003;49.518;11.280;2022-12-07T07:15:24;4.30;83.80
76211;DHT22;65003;49.518;11.280;2022-12-07T07:17:50;4.30;83.70
76211;DHT22;65003;49.518;11.280;2022-12-07T07:20:17;4.40;83.40
76211;DHT22;65003;49.518;11.280;2022-12-07T07:22:44;4.40;83.20
76211;DHT22;65003;49.518;11.280;2022-12-07T07:25:10;4.40;83.20
76211;DHT22;65003;49.518;11.280;2022-12-07T07:27:38;4.40;83.20
76211;DHT22;65003;49.518;11.280;2022-12-07T07:30:05;4.40;83.20
76211;DHT22;65003;49.518;11.280;2022-12-07T07:32:32;4.40;83.00
76211;DHT22;65003;49.518;11.280;2022-12-07T07:34:58;4.50;82.90
76211;DHT22;65003;49.518;11.280;2022-12-07T07:37:25;4.40;83.00
76211;DHT22;65003;49.518;11.280;2022-12-07T07:39:52;4.40;83.00
76211;DHT22;65003;49.518;11.280;2022-12-07T07:42:18;4.40;82.80
76211;DHT22;65003;49.518;11.280;2022-12-07T07:44:45;4.50;82.80
76211;DHT22;65003;49.518;11.280;2022-12-07T07:47:11;4.50;82.40
76211;DHT22;65003;49.518;11.280;2022-12-07T07:49:38;4.50;82.60
76211;DHT22;65003;49.518;11.280;2022-12-07T07:52:05;4.50;82.70
76211;DHT22;65003;49.518;11.280;2022-12-07T07:54:31;4.60;82.40
76211;DHT22;65003;49.518;11.280;2022-12-07T07:56:58;4.60;83.20
76211;DHT22;65003;49.518;11.280;2022-12-07T07:59:24;4.60;82.50
76211;DHT22;65003;49.518;11.280;2022-12-07T08:01:51;4.60;82.50
76211;DHT22;65003;49.518;11.280;2022-12-07T08:04:17;4.50;83.10
76211;DHT22;65003;49.518;11.280;2022-12-07T08:06:44;4.50;82.90
76211;DHT22;65003;49.518;11.280;2022-12-07T08:09:11;4.50;82.70
76211;DHT22;65003;49.518;11.280;2022-12-07T08:11:37;4.60;82.90
76211;DHT22;65003;49.518;11.280;2022-12-07T08:14:04;4.60;82.40
76211;DHT22;65003;49.518;11.280;2022-12-07T08:16:30;4.60;82.20
76211;DHT22;65003;49.518;11.280;2022-12-07T08:18:57;4.60;82.30
76211;DHT22;65003;49.518;11.280;2022-12-07T08:21:24;4.70;82.20
76211;DHT22;65003;49.518;11.280;2022-12-07T08:23:50;4.70;82.40
76211;DHT22;65003;49.518;11.280;2022-12-07T08:26:17;4.70;82.20
76211;DHT22;65003;49.518;11.280;2022-12-07T08:28:43;4.60;82.50
76211;DHT22;65003;49.518;11.280;2022-12-07T08:31:12;4.60;82.40
76211;DHT22;65003;49.518;11.280;2022-12-07T08:33:38;4.70;82.40
76211;DHT22;65003;49.518;11.280;2022-12-07T08:36:06;4.70;82.30
76211;DHT22;65003;49.518;11.280;2022-12-07T08:38:31;4.60;82.30
76211;DHT22;65003;49.518;11.280;2022-12-07T08:40:58;4.60;82.30
76211;DHT22;65003;49.518;11.280;2022-12-07T08:43:24;4.60;82.80
76211;DHT22;65003;49.518;11.280;2022-12-07T08:45:55;4.60;82.90
76211;DHT22;65003;49.518;11.280;2022-12-07T08:48:18;4.70;82.60
76211;DHT22;65003;49.518;11.280;2022-12-07T08:50:45;4.70;82.70
76211;DHT22;65003;49.518;11.280;2022-12-07T08:53:12;4.70;82.40
76211;DHT22;65003;49.518;11.280;2022-12-07T08:55:38;4.70;83.50
76211;DHT22;65003;49.518;11.280;2022-12-07T08:58:05;4.60;83.70
76211;DHT22;65003;49.518;11.280;2022-12-07T09:00:31;4.60;83.90
76211;DHT22;65003;49.518;11.280;2022-12-07T09:02:58;4.70;83.50
76211;DHT22;65003;49.518;11.280;2022-12-07T09:05:25;4.70;83.40
76211;DHT22;65003;49.518;11.280;2022-12-07T09:07:52;4.70;83.60
76211;DHT22;65003;49.518;11.280;2022-12-07T09:10:18;4.70;83.60
76211;DHT22;65003;49.518;11.280;2022-12-07T09:12:44;4.70;83.60
76211;DHT22;65003;49.518;11.280;2022-12-07T09:15:11;4.80;83.40
76211;DHT22;65003;49.518;11.280;2022-12-07T09:17:37;4.80;84.20
76211;DHT22;65003;49.518;11.280;2022-12-07T09:20:05;4.80;83.70
76211;DHT22;65003;49.518;11.280;2022-12-07T09:22:32;4.80;83.70
76211;DHT22;65003;49.518;11.280;2022-12-07T09:24:58;4.80;83.50
76211;DHT22;65003;49.518;11.280;2022-12-07T09:27:25;4.90;83.40
76211;DHT22;65003;49.518;11.280;2022-12-07T09:29:51;4.90;83.40
76211;DHT22;65003;49.518;11.280;2022-12-07T09:32:18;4.90;83.40
76211;DHT22;65003;49.518;11.280;2022-12-07T09:34:45;5.00;83.20
76211;DHT22;65003;49.518;11.280;2022-12-07T09:37:11;5.00;83.10
76211;DHT22;65003;49.518;11.280;2022-12-07T09:39:38;5.00;82.90
76211;DHT22;65003;49.518;11.280;2022-12-07T09:42:05;5.00;83.20
76211;DHT22;65003;49.518;11.280;2022-12-07T09:44:31;5.00;83.30
76211;DHT22;65003;49.518;11.280;2022-12-07T09:46:58;4.90;83.20
76211;DHT22;65003;49.518;11.280;2022-12-07T09:49:25;4.90;83.40
76211;DHT22;65003;49.518;11.280;2022-12-07T09:52:00;4.90;83.60
76211;DHT22;65003;49.518;11.280;2022-12-07T09:54:26;4.80;84.00
76211;DHT22;65003;49.518;11.280;2022-12-07T09:56:53;4.80;83.60
76211;DHT22;65003;49.518;11.280;2022-12-07T09:59:19;4.80;84.30
76211;DHT22;65003;49.518;11.280;2022-12-07T10:01:47;4.80;84.20
76211;DHT22;65003;49.518;11.280;2022-12-07T10:04:17;4.80;84.10
76211;DHT22;65003;49.518;11.280;2022-12-07T10:06:42;4.80;83.80
76211;DHT22;65003;49.518;11.280;2022-12-07T10:09:10;4.70;84.00
76211;DHT22;65003;49.518;11.280;2022-12-07T10:11:57;4.70;84.70
76211;DHT22;65003;49.518;11.280;2022-12-07T10:14:10;4.80;84.90
76211;DHT22;65003;49.518;11.280;2022-12-07T10:16:38;4.80;85.20
76211;DHT22;65003;49.518;11.280;2022-12-07T10:21:42;4.90;84.10
76211;DHT22;65003;49.518;11.280;2022-12-07T10:24:14;4.80;84.40
76211;DHT22;65003;49.518;11.280;2022-12-07T10:26:50;4.80;84.50
76211;DHT22;65003;49.518;11.280;2022-12-07T10:29:21;4.80;84.80
76211;DHT22;65003;49.518;11.280;2022-12-07T10:31:49;4.80;84.80
76211;DHT22;65003;49.518;11.280;2022-12-07T10:34:24;4.80;84.80
76211;DHT22;65003;49.518;11.280;2022-12-07T10:36:50;4.90;84.70
76211;DHT22;65003;49.518;11.280;2022-12-07T10:39:18;4.80;84.80
76211;DHT22;65003;49.518;11.280;2022-12-07T10:41:57;4.80;85.20
76211;DHT22;65003;49.518;11.280;2022-12-07T10:44:25;4.90;85.10
76211;DHT22;65003;49.518;11.280;2022-12-07T10:47:01;5.00;84.40
76211;DHT22;65003;49.518;11.280;2022-12-07T10:49:37;5.10;84.20
76211;DHT22;65003;49.518;11.280;2022-12-07T10:52:05;5.00;84.10
76211;DHT22;65003;49.518;11.280;2022-12-07T10:54:40;5.10;84.40
76211;DHT22;65003;49.518;11.280;2022-12-07T10:57:07;5.00;84.70
76211;DHT22;65003;49.518;11.280;2022-12-07T10:59:38;5.00;84.80
76211;DHT22;65003;49.518;11.280;2022-12-07T11:02:24;5.10;85.00
76211;DHT22;65003;49.518;11.280;2022-12-07T11:06:07;5.10;84.50
76211;DHT22;65003;49.518;11.280;2022-12-07T11:07:43;5.10;84.60
76211;DHT22;65003;49.518;11.280;2022-12-07T11:10:11;5.10;84.30
76211;DHT22;65003;49.518;11.280;2022-12-07T11:12:57;5.10;84.50
76211;DHT22;65003;49.518;11.280;2022-12-07T11:15:24;5.10;84.60
76211;DHT22;65003;49.518;11.280;2022-12-07T11:20:29;5.20;84.20
76211;DHT22;65003;49.518;11.280;2022-12-07T11:25:33;5.20;84.10
76211;DHT22;65003;49.518;11.280;2022-12-07T11:28:06;5.20;84.20
76211;DHT22;65003;49.518;11.280;2022-12-07T11:30:38;5.30;84.50
76211;DHT22;65003;49.518;11.280;2022-12-07T11:33:57;5.30;84.50
76211;DHT22;65003;49.518;11.280;2022-12-07T11:36:09;5.30;85.20
76211;DHT22;65003;49.518;11.280;2022-12-07T11:38:44;5.20;84.80
76211;DHT22;65003;49.518;11.280;2022-12-07T11:41:12;5.20;85.90
76211;DHT22;65003;49.518;11.280;2022-12-07T11:46:18;5.30;84.20
76211;DHT22;65003;49.518;11.280;2022-12-07T11:51:27;5.20;84.40
76211;DHT22;65003;49.518;11.280;2022-12-07T11:53:55;5.10;85.40
76211;DHT22;65003;49.518;11.280;2022-12-07T11:56:21;5.10;86.50
76211;DHT22;65003;49.518;11.280;2022-12-07T11:58:58;4.90;85.90
76211;DHT22;65003;49.518;11.280;2022-12-07T12:01:28;5.00;86.00
76211;DHT22;65003;49.518;11.280;2022-12-07T12:03:54;5.00;86.30
76211;DHT22;65003;49.518;11.280;2022-12-07T12:06:20;5.00;86.30
76211;DHT22;65003;49.518;11.280;2022-12-07T12:08:52;4.90;86.50
76211;DHT22;65003;49.518;11.280;2022-12-07T12:11:39;4.80;86.70
76211;DHT22;65003;49.518;11.280;2022-12-07T12:14:11;4.80;86.90
76211;DHT22;65003;49.518;11.280;2022-12-07T12:17:29;4.80;86.90
76211;DHT22;65003;49.518;11.280;2022-12-07T12:19:36;4.90;86.60
76211;DHT22;65003;49.518;11.280;2022-12-07T12:22:14;5.10;86.00
76211;DHT22;65003;49.518;11.280;2022-12-07T12:24:39;5.20;85.50
76211;DHT22;65003;49.518;11.280;2022-12-07T12:27:06;5.30;84.90
76211;DHT22;65003;49.518;11.280;2022-12-07T12:29:33;5.40;84.80
76211;DHT22;65003;49.518;11.280;2022-12-07T12:32:06;5.30;84.40
76211;DHT22;65003;49.518;11.280;2022-12-07T12:37:14;5.30;84.40
76211;DHT22;65003;49.518;11.280;2022-12-07T12:39:31;5.30;84.30
76211;DHT22;65003;49.518;11.280;2022-12-07T12:41:58;5.30;84.30
76211;DHT22;65003;49.518;11.280;2022-12-07T12:44:39;4.60;84.80
76211;DHT22;65003;49.518;11.280;2022-12-07T12:47:38;5.30;84.30
76211;DHT22;65003;49.518;11.280;2022-12-07T12:49:39;5.20;84.60
76211;DHT22;65003;49.518;11.280;2022-12-07T12:52:45;5.20;85.00
76211;DHT22;65003;49.518;11.280;2022-12-07T12:55:00;5.30;85.10
76211;DHT22;65003;49.518;11.280;2022-12-07T12:57:28;5.30;84.80
76211;DHT22;65003;49.518;11.280;2022-12-07T12:59:57;5.30;84.30
76211;DHT22;65003;49.518;11.280;2022-12-07T13:02:24;5.40;84.40
76211;DHT22;65003;49.518;11.280;2022-12-07T13:04:54;5.40;84.20
76211;DHT22;65003;49.518;11.280;2022-12-07T13:09:58;5.40;84.30
76211;DHT22;65003;49.518;11.280;2022-12-07T13:12:24;5.40;84.10
76211;DHT22;65003;49.518;11.280;2022-12-07T13:14:53;5.40;84.10
76211;DHT22;65003;49.518;11.280;2022-12-07T13:18:00;5.40;84.20
76211;DHT22;65003;49.518;11.280;2022-12-07T13:20:09;5.40;83.80
76211;DHT22;65003;49.518;11.280;2022-12-07T13:22:37;5.40;84.10
76211;DHT22;65003;49.518;11.280;2022-12-07T13:25:21;5.30;84.30
76211;DHT22;65003;49.518;11.280;2022-12-07T13:28:08;5.30;84.70
76211;DHT22;65003;49.518;11.280;2022-12-07T13:30:28;5.30;85.30
76211;DHT22;65003;49.518;11.280;2022-12-07T13:32:56;5.20;85.10
76211;DHT22;65003;49.518;11.280;2022-12-07T13:35:30;5.10;86.00
76211;DHT22;65003;49.518;11.280;2022-12-07T13:37:56;5.00;87.20
76211;DHT22;65003;49.518;11.280;2022-12-07T13:40:23;4.90;86.90
76211;DHT22;65003;49.518;11.280;2022-12-07T13:42:57;5.00;87.10
76211;DHT22;65003;49.518;11.280;2022-12-07T13:45:27;5.10;86.70
76211;DHT22;65003;49.518;11.280;2022-12-07T13:47:53;5.10;86.60
76211;DHT22;65003;49.518;11.280;2022-12-07T13:50:26;5.20;86.20
76211;DHT22;65003;49.518;11.280;2022-12-07T13:52:55;5.10;86.00
76211;DHT22;65003;49.518;11.280;2022-12-07T13:55:18;5.10;86.70
76211;DHT22;65003;49.518;11.280;2022-12-07T13:57:46;5.10;86.50
76211;DHT22;65003;49.518;11.280;2022-12-07T14:00:27;5.10;86.40
76211;DHT22;65003;49.518;11.280;2022-12-07T14:02:58;5.10;86.50
76211;DHT22;65003;49.518;11.280;2022-12-07T14:05:25;5.10;86.20
76211;DHT22;65003;49.518;11.280;2022-12-07T14:07:57;5.20;86.30
76211;DHT22;65003;49.518;11.280;2022-12-07T14:10:32;5.30;86.30
76211;DHT22;65003;49.518;11.280;2022-12-07T14:12:58;5.40;85.80
76211;DHT22;65003;49.518;11.280;2022-12-07T14:15:27;5.40;85.80
76211;DHT22;65003;49.518;11.280;2022-12-07T14:17:54;5.40;85.80
76211;DHT22;65003;49.518;11.280;2022-12-07T14:20:28;5.50;85.40
76211;DHT22;65003;49.518;11.280;2022-12-07T14:22:55;5.50;85.10
76211;DHT22;65003;49.518;11.280;2022-12-07T14:25:23;5.50;85.20
76211;DHT22;65003;49.518;11.280;2022-12-07T14:27:52;5.60;85.20
76211;DHT22;65003;49.518;11.280;2022-12-07T14:30:17;5.60;85.10
76211;DHT22;65003;49.518;11.280;2022-12-07T14:32:43;5.60;85.20
76211;DHT22;65003;49.518;11.280;2022-12-07T14:35:11;5.50;84.90
76211;DHT22;65003;49.518;11.280;2022-12-07T14:37:37;5.50;85.00
76211;DHT22;65003;49.518;11.280;2022-12-07T14:40:04;5.50;85.40
76211;DHT22;65003;49.518;11.280;2022-12-07T14:42:30;5.50;84.90
76211;DHT22;65003;49.518;11.280;2022-12-07T14:44:57;5.50;84.40
76211;DHT22;65003;49.518;11.280;2022-12-07T14:47:25;5.40;83.70
76211;DHT22;65003;49.518;11.280;2022-12-07T14:49:51;5.40;83.30
76211;DHT22;65003;49.518;11.280;2022-12-07T14:52:21;5.40;83.50
76211;DHT22;65003;49.518;11.280;2022-12-07T14:54:47;5.40;83.70
76211;DHT22;65003;49.518;11.280;2022-12-07T14:57:13;5.40;84.10
76211;DHT22;65003;49.518;11.280;2022-12-07T14:59:40;5.40;84.70
76211;DHT22;65003;49.518;11.280;2022-12-07T15:02:08;5.40;83.90
76211;DHT22;65003;49.518;11.280;2022-12-07T15:04:33;5.40;84.20
76211;DHT22;65003;49.518;11.280;2022-12-07T15:07:01;5.30;84.20
76211;DHT22;65003;49.518;11.280;2022-12-07T15:09:26;5.40;84.50
76211;DHT22;65003;49.518;11.280;2022-12-07T15:11:53;5.30;84.40
76211;DHT22;65003;49.518;11.280;2022-12-07T15:14:19;5.20;84.60
76211;DHT22;65003;49.518;11.280;2022-12-07T15:16:46;5.10;85.00
76211;DHT22;65003;49.518;11.280;2022-12-07T15:19:14;5.10;85.10
76211;DHT22;65003;49.518;11.280;2022-12-07T15:21:40;5.00;84.70
76211;DHT22;65003;49.518;11.280;2022-12-07T15:24:06;5.00;84.60
76211;DHT22;65003;49.518;11.280;2022-12-07T15:26:32;4.90;84.20
76211;DHT22;65003;49.518;11.280;2022-12-07T15:28:59;4.90;84.20
76211;DHT22;65003;49.518;11.280;2022-12-07T15:31:26;4.80;84.20
76211;DHT22;65003;49.518;11.280;2022-12-07T15:33:52;4.60;84.90
76211;DHT22;65003;49.518;11.280;2022-12-07T15:36:21;4.60;85.20
76211;DHT22;65003;49.518;11.280;2022-12-07T15:38:46;4.50;85.80
76211;DHT22;65003;49.518;11.280;2022-12-07T15:41:14;4.50;85.70
76211;DHT22;65003;49.518;11.280;2022-12-07T15:43:40;4.50;86.10
76211;DHT22;65003;49.518;11.280;2022-12-07T15:46:13;4.50;86.10
76211;DHT22;65003;49.518;11.280;2022-12-07T15:48:39;4.60;85.60
76211;DHT22;65003;49.518;11.280;2022-12-07T15:51:07;4.70;85.50
76211;DHT22;65003;49.518;11.280;2022-12-07T15:53:33;4.70;85.40
76211;DHT22;65003;49.518;11.280;2022-12-07T15:55:59;4.70;85.20
76211;DHT22;65003;49.518;11.280;2022-12-07T15:58:26;4.70;85.10
76211;DHT22;65003;49.518;11.280;2022-12-07T16:00:52;4.80;85.20
76211;DHT22;65003;49.518;11.280;2022-12-07T16:03:19;4.80;85.30
76211;DHT22;65003;49.518;11.280;2022-12-07T16:05:49;4.80;85.20